Time;durP1;ratioP1;P1;durP2;ratioP2;P2;SDS_P1;SDS_P2;PMS_P1;PMS_P2;Temp;Humidity;BMP_temperature;BMP_pressure;BME280_temperature;BME280_humidity;BME280_pressure;Samples;Min_cycle;Max_cycle;Signal;HPM_P1;HPM_P2
2022/03/21 00:02:01;;;;;;;120.90;40.45;;;;;;;;;;5059080;28;20032;-69
2022/03/21 00:04:27;;;;;;;120.90;40.63;;;;;;;;;;5057621;28;20025;-69
2022/03/21 00:06:52;;;;;;;125.72;42.67;;;;;;;;;;5052086;28;20032;-69
2022/03/21 00:09:17;;;;;;;133.48;40.85;;;;;;;;;;5055758;28;20028;-69
2022/03/21 00:11:42;;;;;;;123.70;38.00;;;;;;;;;;5057033;28;20060;-69
2022/03/21 00:14:10;;;;;;;125.10;40.28;;;;;;;;;;5056550;28;20254;-69
2022/03/21 00:16:37;;;;;;;141.40;40.60;;;;;;;;;;5055041;28;20028;-69
2022/03/21 00:19:02;;;;;;;123.72;38.75;;;;;;;;;;5058417;28;20021;-69
2022/03/21 00:21:27;;;;;;;131.50;40.03;;;;;;;;;;5048753;28;20091;-69
2022/03/21 00:23:52;;;;;;;119.85;39.17;;;;;;;;;;5068743;28;20016;-69
2022/03/21 00:26:18;;;;;;;130.80;41.15;;;;;;;;;;5058122;28;20488;-69
2022/03/21 00:28:43;;;;;;;137.55;43.85;;;;;;;;;;5059843;28;20173;-69
2022/03/21 00:31:08;;;;;;;134.02;42.90;;;;;;;;;;5054005;28;20025;-69
2022/03/21 00:33:33;;;;;;;152.07;44.92;;;;;;;;;;5057224;28;20027;-69
2022/03/21 00:35:59;;;;;;;134.68;42.10;;;;;;;;;;5052819;28;20278;-69
2022/03/21 00:38:24;;;;;;;131.38;39.38;;;;;;;;;;5056097;28;20021;-69
2022/03/21 00:40:50;;;;;;;147.32;44.40;;;;;;;;;;5046959;28;20433;-69
2022/03/21 00:43:18;;;;;;;134.55;43.92;;;;;;;;;;5064075;28;20032;-69
2022/03/21 00:45:45;;;;;;;147.35;43.22;;;;;;;;;;5048627;28;20021;-69
2022/03/21 00:48:10;;;;;;;134.57;43.05;;;;;;;;;;5052602;28;20517;-69
2022/03/21 00:50:35;;;;;;;149.27;45.05;;;;;;;;;;5046932;28;20024;-69
2022/03/21 00:53:00;;;;;;;138.88;44.85;;;;;;;;;;5052282;28;20043;-69
2022/03/21 00:55:26;;;;;;;155.22;48.72;;;;;;;;;;5050972;28;20813;-69
2022/03/21 00:57:52;;;;;;;124.15;41.50;;;;;;;;;;5059484;28;20124;-69
2022/03/21 01:00:18;;;;;;;138.23;43.10;;;;;;;;;;5054973;28;20055;-69
2022/03/21 01:02:44;;;;;;;136.27;43.53;;;;;;;;;;5051781;28;20074;-69
2022/03/21 01:05:09;;;;;;;125.75;40.30;;;;;;;;;;5056111;28;20032;-69
2022/03/21 01:07:35;;;;;;;133.90;44.85;;;;;;;;;;5062886;28;20028;-69
2022/03/21 01:10:00;;;;;;;149.75;46.45;;;;;;;;;;5059855;28;20016;-69
2022/03/21 01:12:26;;;;;;;142.45;44.03;;;;;;;;;;5047874;28;20036;-69
2022/03/21 01:14:51;;;;;;;120.65;40.92;;;;;;;;;;5057870;28;20151;-69
2022/03/21 01:17:17;;;;;;;139.70;41.13;;;;;;;;;;5060919;28;20047;-69
2022/03/21 01:19:42;;;;;;;125.88;40.63;;;;;;;;;;5056180;28;20116;-69
2022/03/21 01:22:07;;;;;;;138.88;41.38;;;;;;;;;;5056807;28;20099;-69
2022/03/21 01:24:35;;;;;;;121.75;38.75;;;;;;;;;;5060616;28;20033;-69
2022/03/21 01:27:00;;;;;;;130.90;41.95;;;;;;;;;;5053981;28;20119;-69
2022/03/21 01:29:26;;;;;;;145.57;43.22;;;;;;;;;;5056028;28;20073;-69
2022/03/21 01:31:51;;;;;;;143.15;44.15;;;;;;;;;;5043145;28;20478;-69
2022/03/21 01:34:16;;;;;;;145.55;46.20;;;;;;;;;;5055990;28;20325;-69
2022/03/21 01:36:41;;;;;;;145.23;44.35;;;;;;;;;;5047152;28;20691;-69
2022/03/21 01:39:06;;;;;;;134.77;41.70;;;;;;;;;;5048613;28;20081;-69
2022/03/21 01:41:31;;;;;;;132.27;41.95;;;;;;;;;;5053120;28;20103;-69
2022/03/21 01:44:07;;;;;;;124.75;39.53;;;;;;;;;;5053606;28;20386;-69
2022/03/21 01:46:33;;;;;;;144.75;43.42;;;;;;;;;;5052201;28;20277;-69
2022/03/21 01:48:59;;;;;;;134.40;43.28;;;;;;;;;;5054251;28;20036;-69
2022/03/21 01:51:27;;;;;;;126.57;39.63;;;;;;;;;;5050656;28;20443;-69
2022/03/21 01:56:37;;;;;;;;;;;;;;;;;;5045100;28;20036;-69
2022/03/21 01:59:02;;;;;;;125.18;36.60;;;;;;;;;;5047902;28;20558;-69
2022/03/21 02:01:27;;;;;;;120.32;38.30;;;;;;;;;;5045064;28;20021;-69
2022/03/21 02:03:52;;;;;;;119.85;39.72;;;;;;;;;;5047036;28;20033;-69
2022/03/21 02:06:18;;;;;;;129.68;41.28;;;;;;;;;;5043993;28;20268;-69
2022/03/21 02:08:44;;;;;;;119.63;38.83;;;;;;;;;;5052596;28;20021;-70
2022/03/21 02:11:10;;;;;;;127.32;39.92;;;;;;;;;;5051404;28;20033;-69
2022/03/21 02:13:35;;;;;;;145.05;43.63;;;;;;;;;;5048436;28;20549;-69
2022/03/21 02:16:00;;;;;;;135.98;40.55;;;;;;;;;;5049663;28;20020;-69
2022/03/21 02:18:26;;;;;;;130.73;39.45;;;;;;;;;;5052726;28;20425;-69
2022/03/21 02:20:53;;;;;;;150.15;43.05;;;;;;;;;;5049243;28;20434;-69
2022/03/21 02:23:38;;;;;;;145.15;42.30;;;;;;;;;;5046675;28;20291;-69
2022/03/21 02:26:06;;;;;;;137.98;42.53;;;;;;;;;;5045393;28;20425;-69
2022/03/21 02:28:31;;;;;;;117.55;40.13;;;;;;;;;;5048252;28;20065;-69
2022/03/21 02:30:57;;;;;;;143.48;43.95;;;;;;;;;;5043286;28;20020;-69
2022/03/21 02:33:22;;;;;;;145.25;45.33;;;;;;;;;;5046718;28;20052;-69
2022/03/21 02:35:49;;;;;;;133.48;40.97;;;;;;;;;;5054436;28;20135;-69
2022/03/21 02:38:15;;;;;;;136.40;42.80;;;;;;;;;;5051443;28;20025;-69
2022/03/21 02:40:41;;;;;;;143.57;43.15;;;;;;;;;;5043714;28;20017;-69
2022/03/21 02:43:06;;;;;;;129.30;39.38;;;;;;;;;;5055113;28;20367;-69
2022/03/21 02:45:31;;;;;;;131.00;41.08;;;;;;;;;;5045514;28;20028;-69
2022/03/21 02:47:56;;;;;;;123.13;40.80;;;;;;;;;;5052412;28;20832;-69
2022/03/21 02:50:24;;;;;;;134.30;42.13;;;;;;;;;;5047722;28;20482;-69
2022/03/21 02:52:50;;;;;;;142.65;44.33;;;;;;;;;;5045163;28;20039;-69
2022/03/21 02:55:16;;;;;;;129.32;40.40;;;;;;;;;;5047328;28;20033;-69
2022/03/21 02:57:41;;;;;;;127.68;40.00;;;;;;;;;;5050497;28;20043;-69
2022/03/21 03:00:06;;;;;;;150.18;44.28;;;;;;;;;;5048728;28;20035;-70
2022/03/21 03:02:31;;;;;;;127.68;42.17;;;;;;;;;;5049274;28;20082;-69
2022/03/21 03:04:56;;;;;;;127.38;42.00;;;;;;;;;;5045942;28;20012;-69
2022/03/21 03:07:22;;;;;;;133.48;40.75;;;;;;;;;;5046292;28;20670;-70
2022/03/21 03:09:47;;;;;;;127.70;39.15;;;;;;;;;;5048907;28;20295;-69
2022/03/21 03:12:12;;;;;;;140.05;42.83;;;;;;;;;;5047178;28;20273;-69
2022/03/21 03:14:37;;;;;;;136.13;42.15;;;;;;;;;;5053560;28;20025;-69
2022/03/21 03:17:02;;;;;;;137.32;40.08;;;;;;;;;;5047303;28;20029;-69
2022/03/21 03:19:28;;;;;;;129.32;41.50;;;;;;;;;;5055943;28;20406;-69
2022/03/21 03:21:53;;;;;;;152.18;43.80;;;;;;;;;;5045531;28;20025;-69
2022/03/21 03:24:19;;;;;;;150.90;45.85;;;;;;;;;;5042349;28;20127;-69
2022/03/21 03:26:44;;;;;;;138.63;44.35;;;;;;;;;;5048158;28;20036;-69
2022/03/21 03:29:09;;;;;;;134.20;39.95;;;;;;;;;;5049737;28;20025;-69
2022/03/21 03:31:37;;;;;;;131.40;39.47;;;;;;;;;;5053680;28;20221;-69
2022/03/21 03:34:03;;;;;;;128.23;41.55;;;;;;;;;;5050732;28;20261;-69
2022/03/21 03:36:28;;;;;;;144.90;41.70;;;;;;;;;;5047522;28;20087;-70
2022/03/21 03:38:54;;;;;;;129.57;40.35;;;;;;;;;;5042260;28;20107;-69
2022/03/21 03:41:19;;;;;;;133.57;39.80;;;;;;;;;;5050110;28;20048;-70
2022/03/21 03:43:44;;;;;;;123.30;42.25;;;;;;;;;;5055183;28;20372;-69
2022/03/21 03:46:10;;;;;;;122.50;39.05;;;;;;;;;;5049175;28;20032;-69
2022/03/21 03:48:35;;;;;;;124.40;39.25;;;;;;;;;;5048774;28;20059;-69
2022/03/21 03:51:01;;;;;;;123.57;38.58;;;;;;;;;;5043890;28;20423;-70
2022/03/21 03:53:26;;;;;;;126.55;39.28;;;;;;;;;;5051887;28;20383;-69
2022/03/21 03:55:52;;;;;;;135.25;43.10;;;;;;;;;;5043931;28;20021;-69
2022/03/21 03:58:17;;;;;;;135.75;42.80;;;;;;;;;;5044752;28;20155;-70
2022/03/21 04:00:44;;;;;;;145.70;42.25;;;;;;;;;;5053623;28;20029;-69
2022/03/21 04:05:54;;;;;;;152.30;44.90;;;;;;;;;;5054926;28;20036;-69
2022/03/21 04:08:19;;;;;;;156.55;48.33;;;;;;;;;;5061133;28;20031;-69
2022/03/21 04:10:44;;;;;;;164.38;48.75;;;;;;;;;;5053183;28;20032;-69
2022/03/21 04:13:09;;;;;;;168.75;48.80;;;;;;;;;;5049243;28;20040;-69
2022/03/21 04:15:34;;;;;;;145.55;45.03;;;;;;;;;;5053350;28;20438;-69
2022/03/21 04:18:00;;;;;;;158.30;44.00;;;;;;;;;;5051232;28;20273;-69
2022/03/21 04:20:25;;;;;;;158.52;45.92;;;;;;;;;;5045572;28;20104;-69
2022/03/21 04:22:50;;;;;;;152.20;44.95;;;;;;;;;;5047665;28;20095;-69
2022/03/21 04:25:16;;;;;;;148.88;43.25;;;;;;;;;;5048932;28;20016;-69
2022/03/21 04:27:41;;;;;;;155.73;47.22;;;;;;;;;;5053707;28;20266;-69
2022/03/21 04:30:07;;;;;;;141.27;43.63;;;;;;;;;;5064841;28;20023;-69
2022/03/21 04:32:32;;;;;;;135.98;41.72;;;;;;;;;;5059066;28;20024;-69
2022/03/21 04:34:57;;;;;;;125.47;39.53;;;;;;;;;;5062972;28;20036;-69
2022/03/21 04:37:23;;;;;;;138.05;43.10;;;;;;;;;;5056615;28;20776;-69
2022/03/21 04:39:48;;;;;;;151.98;47.72;;;;;;;;;;5055975;28;20021;-69
2022/03/21 04:42:13;;;;;;;160.43;46.90;;;;;;;;;;5060634;28;20047;-69
2022/03/21 04:44:39;;;;;;;164.10;47.88;;;;;;;;;;5058313;28;20262;-69
2022/03/21 04:47:05;;;;;;;164.98;43.95;;;;;;;;;;5055061;28;20020;-69
2022/03/21 04:49:30;;;;;;;165.82;47.80;;;;;;;;;;5050283;28;20069;-69
2022/03/21 04:51:55;;;;;;;170.20;49.20;;;;;;;;;;5047010;28;20081;-69
2022/03/21 04:54:21;;;;;;;171.63;47.85;;;;;;;;;;5052957;28;20296;-69
2022/03/21 04:56:46;;;;;;;159.20;45.13;;;;;;;;;;5059373;28;20646;-69
2022/03/21 04:59:11;;;;;;;152.04;42.12;;;;;;;;;;5051082;28;20285;-69
2022/03/21 05:01:36;;;;;;;158.75;45.53;;;;;;;;;;5047631;28;20543;-69
2022/03/21 05:04:01;;;;;;;147.38;45.40;;;;;;;;;;5053487;28;20659;-70
2022/03/21 05:06:27;;;;;;;155.43;45.75;;;;;;;;;;5048999;28;20278;-69
2022/03/21 05:08:52;;;;;;;162.35;46.95;;;;;;;;;;5056864;28;20150;-69
2022/03/21 05:11:17;;;;;;;143.02;42.46;;;;;;;;;;5050661;28;20581;-69
2022/03/21 05:13:42;;;;;;;206.27;52.75;;;;;;;;;;5057821;28;20021;-69
2022/03/21 05:16:08;;;;;;;173.00;48.92;;;;;;;;;;5046093;28;20033;-69
2022/03/21 05:18:36;;;;;;;166.52;47.42;;;;;;;;;;5054431;28;20025;-69
2022/03/21 05:21:02;;;;;;;180.13;48.25;;;;;;;;;;5052421;28;20021;-69
2022/03/21 05:31:39;;;;;;;159.98;47.45;;;;;;;;;;5052114;28;20047;-69
2022/03/21 05:36:47;;;;;;;128.67;38.10;;;;;;;;;;5065005;28;20044;-69
2022/03/21 05:39:13;;;;;;;162.20;42.72;;;;;;;;;;5060213;28;20285;-69
2022/03/21 05:41:38;;;;;;;143.98;40.38;;;;;;;;;;5052556;28;20024;-69
2022/03/21 05:44:03;;;;;;;144.72;41.40;;;;;;;;;;5052193;28;20029;-69
2022/03/21 05:46:28;;;;;;;132.68;39.50;;;;;;;;;;5050523;28;20379;-69
2022/03/21 05:48:58;;;;;;;140.55;39.67;;;;;;;;;;5052550;28;20031;-69
2022/03/21 05:51:28;;;;;;;148.98;42.92;;;;;;;;;;5056935;28;20447;-69
2022/03/21 05:53:55;;;;;;;142.13;40.80;;;;;;;;;;5046744;28;20040;-69
2022/03/21 05:56:21;;;;;;;157.65;41.83;;;;;;;;;;5051001;28;20051;-69
2022/03/21 05:58:46;;;;;;;197.40;51.72;;;;;;;;;;5054749;28;20382;-69
2022/03/21 06:01:12;;;;;;;165.38;43.78;;;;;;;;;;5051415;28;20036;-70
2022/03/21 06:03:38;;;;;;;133.32;41.53;;;;;;;;;;5050619;28;20051;-70
2022/03/21 06:06:04;;;;;;;140.30;38.40;;;;;;;;;;5048643;28;20183;-70
2022/03/21 06:08:29;;;;;;;160.02;42.22;;;;;;;;;;5053055;28;20025;-70
2022/03/21 06:11:03;;;;;;;163.88;43.75;;;;;;;;;;5047083;28;20028;-70
2022/03/21 06:13:42;;;;;;;169.80;44.38;;;;;;;;;;5048673;28;20029;-70
2022/03/21 06:16:07;;;;;;;138.85;40.15;;;;;;;;;;5053231;28;20029;-70
2022/03/21 06:18:33;;;;;;;165.18;42.50;;;;;;;;;;5055461;28;20308;-70
2022/03/21 06:20:59;;;;;;;172.00;47.60;;;;;;;;;;5050991;28;20551;-70
2022/03/21 06:23:24;;;;;;;146.75;41.95;;;;;;;;;;5046140;28;20138;-70
2022/03/21 06:25:51;;;;;;;156.57;43.90;;;;;;;;;;5049230;28;20079;-70
2022/03/21 06:28:16;;;;;;;155.18;44.97;;;;;;;;;;5057834;28;20502;-70
2022/03/21 06:30:42;;;;;;;162.18;45.65;;;;;;;;;;5047592;28;20045;-70
2022/03/21 06:33:07;;;;;;;162.93;43.25;;;;;;;;;;5050935;28;20028;-70
2022/03/21 06:35:32;;;;;;;166.88;44.10;;;;;;;;;;5048193;28;20429;-70
2022/03/21 06:37:57;;;;;;;167.85;47.90;;;;;;;;;;5051547;28;20312;-70
2022/03/21 06:40:24;;;;;;;174.40;48.70;;;;;;;;;;5050775;28;20064;-70
2022/03/21 06:42:50;;;;;;;213.38;55.20;;;;;;;;;;5051182;28;20258;-71
2022/03/21 06:45:15;;;;;;;217.77;55.13;;;;;;;;;;5058416;28;20423;-70
2022/03/21 06:47:40;;;;;;;212.60;54.05;;;;;;;;;;5050855;28;20396;-69
2022/03/21 06:50:06;;;;;;;194.85;51.63;;;;;;;;;;5048218;28;20391;-70
2022/03/21 06:52:34;;;;;;;168.10;46.33;;;;;;;;;;5045305;28;20466;-71
2022/03/21 06:55:00;;;;;;;185.85;47.60;;;;;;;;;;5051102;28;20878;-70
2022/03/21 06:57:25;;;;;;;171.55;46.35;;;;;;;;;;5051538;28;20403;-70
2022/03/21 06:59:50;;;;;;;157.95;41.85;;;;;;;;;;5045366;28;20035;-70
2022/03/21 07:02:16;;;;;;;169.35;48.63;;;;;;;;;;5042964;28;20024;-70
2022/03/21 07:04:42;;;;;;;170.82;45.55;;;;;;;;;;5044373;28;20273;-69
2022/03/21 07:07:07;;;;;;;167.85;45.15;;;;;;;;;;5045980;28;20063;-70
2022/03/21 07:09:32;;;;;;;146.80;42.95;;;;;;;;;;5049700;28;20434;-69
2022/03/21 07:11:57;;;;;;;170.55;46.20;;;;;;;;;;5045364;28;20514;-70
2022/03/21 07:14:22;;;;;;;161.55;46.13;;;;;;;;;;5053816;28;20032;-70
2022/03/21 07:16:48;;;;;;;161.82;47.65;;;;;;;;;;5052912;28;20037;-70
2022/03/21 07:19:13;;;;;;;159.30;46.28;;;;;;;;;;5053400;28;20024;-71
2022/03/21 07:21:38;;;;;;;141.65;42.40;;;;;;;;;;5051294;28;20017;-71
2022/03/21 07:24:04;;;;;;;144.75;42.63;;;;;;;;;;5043638;28;20029;-70
2022/03/21 07:26:31;;;;;;;165.48;46.65;;;;;;;;;;5047404;28;20522;-67
2022/03/21 07:28:56;;;;;;;138.98;42.47;;;;;;;;;;5049099;28;20024;-71
2022/03/21 07:31:21;;;;;;;130.05;40.58;;;;;;;;;;5051257;28;20557;-71
2022/03/21 07:33:46;;;;;;;107.68;37.70;;;;;;;;;;5047421;28;20056;-71
2022/03/21 07:36:11;;;;;;;108.53;38.17;;;;;;;;;;5059757;28;20036;-71
2022/03/21 07:38:37;;;;;;;113.85;40.03;;;;;;;;;;5055233;28;20282;-71
2022/03/21 07:41:04;;;;;;;94.20;36.08;;;;;;;;;;5057887;28;20663;-72
2022/03/21 07:43:29;;;;;;;154.13;40.30;;;;;;;;;;5054886;28;20398;-71
2022/03/21 07:48:39;;;;;;;86.82;32.10;;;;;;;;;;5056173;28;20064;-72
2022/03/21 07:51:05;;;;;;;85.25;33.45;;;;;;;;;;5063966;28;20103;-71
2022/03/21 07:53:30;;;;;;;75.45;30.55;;;;;;;;;;5055945;28;20056;-71
2022/03/21 07:55:56;;;;;;;593.28;77.78;;;;;;;;;;5061479;28;20413;-69
2022/03/21 07:58:22;;;;;;;75.15;27.75;;;;;;;;;;5052624;28;20063;-69
2022/03/21 08:00:47;;;;;;;71.40;27.65;;;;;;;;;;5048200;28;20468;-69
2022/03/21 08:03:14;;;;;;;67.10;25.10;;;;;;;;;;5053167;28;20036;-67
2022/03/21 08:05:39;;;;;;;80.28;25.73;;;;;;;;;;5046772;28;20256;-69
2022/03/21 08:08:04;;;;;;;67.30;24.17;;;;;;;;;;5053329;28;20469;-69
2022/03/21 08:10:29;;;;;;;68.23;24.40;;;;;;;;;;5051079;28;20032;-69
2022/03/21 08:12:56;;;;;;;64.22;25.65;;;;;;;;;;5049113;28;20273;-70
2022/03/21 08:15:21;;;;;;;62.63;24.02;;;;;;;;;;5054013;28;20028;-69
2022/03/21 08:17:50;;;;;;;61.15;27.83;;;;;;;;;;5048351;28;20035;-69
2022/03/21 08:20:17;;;;;;;62.90;25.33;;;;;;;;;;5052251;28;20024;-69
2022/03/21 08:22:43;;;;;;;60.47;23.23;;;;;;;;;;5054017;28;20020;-70
2022/03/21 08:25:08;;;;;;;57.13;25.58;;;;;;;;;;5049815;28;20035;-70
2022/03/21 08:27:35;;;;;;;50.65;22.88;;;;;;;;;;5053501;28;20029;-70
2022/03/21 08:30:00;;;;;;;60.75;25.85;;;;;;;;;;5049933;28;20405;-69
2022/03/21 08:32:25;;;;;;;62.50;28.40;;;;;;;;;;5051330;28;20029;-69
2022/03/21 08:34:50;;;;;;;63.42;24.83;;;;;;;;;;5052674;28;20047;-69
2022/03/21 08:37:18;;;;;;;59.07;24.23;;;;;;;;;;5055635;28;20413;-70
2022/03/21 08:39:43;;;;;;;56.70;21.45;;;;;;;;;;5052220;28;20277;-70
2022/03/21 08:42:08;;;;;;;49.67;21.27;;;;;;;;;;5055015;28;20486;-70
2022/03/21 08:44:33;;;;;;;53.60;21.98;;;;;;;;;;5051836;28;20029;-70
2022/03/21 08:46:58;;;;;;;61.35;21.55;;;;;;;;;;5050894;28;20105;-69
2022/03/21 08:49:23;;;;;;;47.20;19.63;;;;;;;;;;5052860;28;20475;-70
2022/03/21 08:51:49;;;;;;;50.27;19.47;;;;;;;;;;5050650;28;20340;-70
2022/03/21 08:54:14;;;;;;;61.13;20.55;;;;;;;;;;5045854;28;20747;-70
2022/03/21 08:56:39;;;;;;;50.30;17.50;;;;;;;;;;5050599;28;20024;-70
2022/03/21 08:59:05;;;;;;;51.15;21.50;;;;;;;;;;5053040;28;20135;-70
2022/03/21 09:01:31;;;;;;;54.63;20.67;;;;;;;;;;5051155;28;20362;-70
2022/03/21 09:03:57;;;;;;;50.28;19.80;;;;;;;;;;5049090;28;20470;-70
2022/03/21 09:06:22;;;;;;;42.90;19.00;;;;;;;;;;5057707;28;20036;-70
2022/03/21 09:08:48;;;;;;;48.53;21.40;;;;;;;;;;5060104;28;20033;-70
2022/03/21 09:11:13;;;;;;;49.85;20.23;;;;;;;;;;5047303;28;20029;-69
2022/03/21 09:13:39;;;;;;;62.17;20.75;;;;;;;;;;5062896;28;20043;-69
2022/03/21 09:16:05;;;;;;;48.72;19.20;;;;;;;;;;5060077;28;20028;-70
2022/03/21 09:18:30;;;;;;;45.05;20.38;;;;;;;;;;5066277;28;20107;-73
2022/03/21 09:20:56;;;;;;;59.27;19.27;;;;;;;;;;5058066;28;20024;-73
2022/03/21 09:23:21;;;;;;;118.90;24.27;;;;;;;;;;5062400;28;20269;-72
2022/03/21 09:25:46;;;;;;;58.80;22.15;;;;;;;;;;5055632;28;20028;-73
2022/03/21 09:28:11;;;;;;;50.57;19.10;;;;;;;;;;5058023;28;20036;-72
2022/03/21 09:30:39;;;;;;;46.72;18.33;;;;;;;;;;5055108;28;20055;-73
2022/03/21 09:33:04;;;;;;;51.50;19.48;;;;;;;;;;5058793;28;20040;-72
2022/03/21 09:35:29;;;;;;;58.88;21.42;;;;;;;;;;5055069;28;20033;-72
2022/03/21 09:37:54;;;;;;;57.77;23.63;;;;;;;;;;5057477;28;20494;-72
2022/03/21 09:40:20;;;;;;;65.77;22.77;;;;;;;;;;5058481;28;20025;-72
2022/03/21 09:42:45;;;;;;;58.10;21.65;;;;;;;;;;5055598;28;20257;-72
2022/03/21 09:45:11;;;;;;;59.92;21.35;;;;;;;;;;5053769;28;20495;-72
2022/03/21 09:50:35;;;;;;;52.03;21.35;;;;;;;;;;5057588;28;20128;-73
2022/03/21 09:53:04;;;;;;;68.28;23.48;;;;;;;;;;5054029;28;20064;-71
2022/03/21 09:55:29;;;;;;;59.08;20.98;;;;;;;;;;5054147;28;20032;-71
2022/03/21 09:57:54;;;;;;;68.95;25.08;;;;;;;;;;5054904;28;20039;-69
2022/03/21 10:00:19;;;;;;;66.67;23.70;;;;;;;;;;5058511;28;20032;-72
2022/03/21 10:02:45;;;;;;;69.27;23.67;;;;;;;;;;5055903;28;21023;-73
2022/03/21 10:05:28;;;;;;;71.60;26.47;;;;;;;;;;5057145;28;20388;-72
2022/03/21 10:08:03;;;;;;;72.95;27.63;;;;;;;;;;5051208;28;20270;-71
2022/03/21 10:10:28;;;;;;;69.72;29.10;;;;;;;;;;5056436;28;20024;-71
2022/03/21 10:12:53;;;;;;;72.03;25.85;;;;;;;;;;5050431;28;20036;-71
2022/03/21 10:15:24;;;;;;;74.47;24.77;;;;;;;;;;5054687;28;20060;-71
2022/03/21 10:18:03;;;;;;;70.10;25.67;;;;;;;;;;5050875;28;20445;-71
2022/03/21 10:20:32;;;;;;;72.50;29.10;;;;;;;;;;5055081;28;20032;-72
2022/03/21 10:23:13;;;;;;;70.80;24.02;;;;;;;;;;5059445;28;20024;-72
2022/03/21 10:25:38;;;;;;;74.03;26.15;;;;;;;;;;5051437;28;20505;-72
2022/03/21 10:28:03;;;;;;;70.40;25.40;;;;;;;;;;5056946;28;20029;-73
2022/03/21 10:30:28;;;;;;;76.20;26.50;;;;;;;;;;5056742;28;20265;-72
2022/03/21 10:32:55;;;;;;;76.35;29.42;;;;;;;;;;5053935;28;20116;-72
2022/03/21 10:35:23;;;;;;;75.20;25.48;;;;;;;;;;5056283;28;20244;-73
2022/03/21 10:37:51;;;;;;;80.50;28.00;;;;;;;;;;5057659;28;20029;-73
2022/03/21 10:40:24;;;;;;;71.35;26.38;;;;;;;;;;5055115;28;20035;-72
2022/03/21 10:43:00;;;;;;;73.55;27.30;;;;;;;;;;5055551;28;20023;-72
2022/03/21 10:45:38;;;;;;;89.72;31.73;;;;;;;;;;5054085;28;20024;-73
2022/03/21 10:48:05;;;;;;;75.88;27.42;;;;;;;;;;5053328;28;20024;-72
2022/03/21 10:50:31;;;;;;;72.60;25.88;;;;;;;;;;5050740;28;20134;-71
2022/03/21 10:53:05;;;;;;;77.05;28.55;;;;;;;;;;5055588;28;20024;-70
2022/03/21 10:55:30;;;;;;;78.93;26.60;;;;;;;;;;5061951;28;20478;-70
2022/03/21 10:57:55;;;;;;;70.60;25.95;;;;;;;;;;5057183;28;20466;-70
2022/03/21 11:00:21;;;;;;;69.60;26.67;;;;;;;;;;5058261;28;20435;-70
2022/03/21 11:02:54;;;;;;;71.40;27.27;;;;;;;;;;5054807;28;20044;-70
2022/03/21 11:05:20;;;;;;;77.63;29.83;;;;;;;;;;5057205;28;20020;-71
2022/03/21 11:07:45;;;;;;;81.88;28.30;;;;;;;;;;5057026;28;20031;-71
2022/03/21 11:10:11;;;;;;;73.70;27.23;;;;;;;;;;5054840;28;20029;-71
2022/03/21 11:12:37;;;;;;;75.20;29.20;;;;;;;;;;5052622;28;20016;-71
2022/03/21 11:15:04;;;;;;;81.22;30.10;;;;;;;;;;5058124;28;20070;-71
2022/03/21 11:17:31;;;;;;;87.43;30.70;;;;;;;;;;5059228;28;20113;-71
2022/03/21 11:19:57;;;;;;;83.47;30.27;;;;;;;;;;5062325;28;20104;-71
2022/03/21 11:22:22;;;;;;;99.93;34.75;;;;;;;;;;5057435;28;20135;-70
2022/03/21 11:24:47;;;;;;;90.97;35.03;;;;;;;;;;5054374;28;20405;-71
2022/03/21 11:27:31;;;;;;;91.97;33.10;;;;;;;;;;5055860;28;20772;-70
2022/03/21 11:29:59;;;;;;;90.88;31.40;;;;;;;;;;5058789;28;20111;-71
2022/03/21 11:32:52;;;;;;;96.88;36.45;;;;;;;;;;5056634;28;20036;-72
2022/03/21 11:35:23;;;;;;;94.75;39.75;;;;;;;;;;5058040;28;20028;-71
2022/03/21 11:37:50;;;;;;;92.43;37.97;;;;;;;;;;5056601;28;20036;-71
2022/03/21 11:40:34;;;;;;;88.43;37.65;;;;;;;;;;5057966;28;20106;-71
2022/03/21 11:42:59;;;;;;;;;;;;;;;;;;5061153;28;20021;-70
2022/03/21 11:45:34;;;;;;;88.97;33.37;;;;;;;;;;5055915;28;19965;-67
2022/03/21 11:48:18;;;;;;;87.03;32.17;;;;;;;;;;5056255;28;20745;-71
2022/03/21 11:50:47;;;;;;;94.45;36.05;;;;;;;;;;5054492;28;20029;-67
2022/03/21 11:53:13;;;;;;;92.07;34.75;;;;;;;;;;5056093;28;20048;-67
2022/03/21 11:55:38;;;;;;;91.13;38.72;;;;;;;;;;5057792;28;20498;-68
2022/03/21 11:58:39;;;;;;;95.83;36.50;;;;;;;;;;5054718;28;20747;-69
2022/03/21 12:01:05;;;;;;;95.63;35.47;;;;;;;;;;5055692;28;20108;-68
2022/03/21 12:03:30;;;;;;;92.90;36.42;;;;;;;;;;5058934;28;20055;-69
2022/03/21 12:05:55;;;;;;;87.45;38.85;;;;;;;;;;5059376;28;20024;-68
2022/03/21 12:08:30;;;;;;;89.03;36.77;;;;;;;;;;5059399;28;20495;-68
2022/03/21 12:10:55;;;;;;;93.68;38.40;;;;;;;;;;5056478;28;20025;-69
2022/03/21 12:13:20;;;;;;;81.45;33.47;;;;;;;;;;5049639;28;20438;-65
2022/03/21 12:15:52;;;;;;;96.47;38.77;;;;;;;;;;5051224;28;20491;-65
2022/03/21 12:18:19;;;;;;;101.90;34.90;;;;;;;;;;5054640;28;20103;-65
2022/03/21 12:20:46;;;;;;;100.57;36.38;;;;;;;;;;5055705;28;20021;-64
2022/03/21 12:23:16;;;;;;;89.15;36.92;;;;;;;;;;5054586;28;20140;-69
2022/03/21 12:25:53;;;;;;;103.25;40.10;;;;;;;;;;5068227;28;20051;-69
2022/03/21 12:29:31;;;;;;;85.50;34.83;;;;;;;;;;5060489;28;20485;-68
2022/03/21 12:31:23;;;;;;;103.35;36.15;;;;;;;;;;5055407;28;20559;-68
2022/03/21 12:33:48;;;;;;;100.93;36.72;;;;;;;;;;5063558;28;20386;-69
2022/03/21 12:36:29;;;;;;;93.37;34.80;;;;;;;;;;5054237;28;20021;-69
2022/03/21 12:38:54;;;;;;;109.35;40.35;;;;;;;;;;5057987;28;20060;-70
2022/03/21 12:41:20;;;;;;;102.33;35.83;;;;;;;;;;5056867;28;20100;-69
2022/03/21 12:43:52;;;;;;;86.28;33.45;;;;;;;;;;5057123;28;20471;-69
2022/03/21 12:46:18;;;;;;;92.45;37.75;;;;;;;;;;5060698;28;20013;-69
2022/03/21 12:49:03;;;;;;;97.30;38.45;;;;;;;;;;5054350;28;20020;-70
2022/03/21 12:51:29;;;;;;;93.80;39.17;;;;;;;;;;5053712;28;20507;-69
2022/03/21 12:53:56;;;;;;;94.65;36.20;;;;;;;;;;5058979;28;20063;-70
2022/03/21 12:56:23;;;;;;;105.57;37.92;;;;;;;;;;5059462;28;20097;-68
2022/03/21 12:58:49;;;;;;;112.03;37.85;;;;;;;;;;5057128;28;20642;-68
2022/03/21 13:01:18;;;;;;;106.70;40.47;;;;;;;;;;5056893;28;20325;-68
2022/03/21 13:03:43;;;;;;;111.68;40.53;;;;;;;;;;5051380;28;20518;-69
2022/03/21 13:11:38;;;;;;;101.18;32.47;;;;;;;;;;5055745;28;20029;-71
2022/03/21 13:14:05;;;;;;;89.63;32.90;;;;;;;;;;5059168;28;20025;-69
2022/03/21 13:16:38;;;;;;;96.28;35.40;;;;;;;;;;5052585;28;20102;-72
2022/03/21 13:19:03;;;;;;;87.80;33.08;;;;;;;;;;5061338;28;20024;-70
2022/03/21 13:21:34;;;;;;;97.90;35.97;;;;;;;;;;5057115;28;20354;-70
2022/03/21 13:23:59;;;;;;;98.47;35.85;;;;;;;;;;5055385;28;20020;-67
2022/03/21 13:26:26;;;;;;;95.13;33.90;;;;;;;;;;5058493;28;20358;-67
2022/03/21 13:28:52;;;;;;;102.25;43.78;;;;;;;;;;5057855;28;20021;-68
2022/03/21 13:31:26;;;;;;;98.60;36.10;;;;;;;;;;5056617;28;20029;-70
2022/03/21 13:33:53;;;;;;;90.45;33.22;;;;;;;;;;5057117;28;20032;-71
2022/03/21 13:36:19;;;;;;;97.53;34.80;;;;;;;;;;5057722;28;20028;-71
2022/03/21 13:38:44;;;;;;;87.20;32.40;;;;;;;;;;5055136;28;20028;-70
2022/03/21 13:41:17;;;;;;;89.83;33.53;;;;;;;;;;5054531;28;20332;-70
2022/03/21 13:43:43;;;;;;;87.90;34.72;;;;;;;;;;5055484;28;20029;-70
2022/03/21 13:46:08;;;;;;;95.90;34.53;;;;;;;;;;5055691;28;20019;-69
2022/03/21 13:48:41;;;;;;;103.55;36.97;;;;;;;;;;5060337;28;20044;-73
2022/03/21 13:51:19;;;;;;;98.93;37.35;;;;;;;;;;5059465;28;20127;-72
2022/03/21 13:53:45;;;;;;;94.43;36.10;;;;;;;;;;5054893;28;20592;-70
2022/03/21 13:56:12;;;;;;;93.40;31.08;;;;;;;;;;5059539;28;20078;-69
2022/03/21 13:58:37;;;;;;;91.28;34.15;;;;;;;;;;5057181;28;20028;-71
2022/03/21 14:01:17;;;;;;;90.05;34.47;;;;;;;;;;5063546;28;20012;-70
2022/03/21 14:03:46;;;;;;;90.25;35.90;;;;;;;;;;5052159;28;20016;-70
2022/03/21 14:06:11;;;;;;;88.63;31.92;;;;;;;;;;5061998;28;20051;-69
2022/03/21 14:08:36;;;;;;;93.95;31.70;;;;;;;;;;5062551;28;20405;-69
2022/03/21 14:11:06;;;;;;;87.50;30.87;;;;;;;;;;5058596;28;20024;-70
2022/03/21 14:13:35;;;;;;;96.28;33.50;;;;;;;;;;5056148;28;20025;-70
2022/03/21 14:16:01;;;;;;;90.28;32.00;;;;;;;;;;5061225;28;20636;-70
2022/03/21 14:18:39;;;;;;;79.82;31.70;;;;;;;;;;5060211;28;20559;-70
2022/03/21 14:21:05;;;;;;;85.10;31.27;;;;;;;;;;5062591;28;20017;-70
2022/03/21 14:23:31;;;;;;;90.05;34.17;;;;;;;;;;5058463;28;20077;-70
2022/03/21 14:28:42;;;;;;;95.53;37.50;;;;;;;;;;5057060;28;20059;-70
2022/03/21 14:31:07;;;;;;;91.32;31.13;;;;;;;;;;5059462;28;20020;-69
2022/03/21 14:33:33;;;;;;;86.60;30.55;;;;;;;;;;5062144;28;20074;-69
2022/03/21 14:35:58;;;;;;;83.20;31.45;;;;;;;;;;5065509;28;20016;-69
2022/03/21 14:38:24;;;;;;;101.80;33.10;;;;;;;;;;5054951;28;20043;-69
2022/03/21 14:40:49;;;;;;;90.65;32.03;;;;;;;;;;5049391;28;20017;-67